Time;durP1;ratioP1;P1;durP2;ratioP2;P2;SDS_P1;SDS_P2;PMS_P1;PMS_P2;Temp;Humidity;BMP_temperature;BMP_pressure;BME280_temperature;BME280_humidity;BME280_pressure;Samples;Min_cycle;Max_cycle;Signal;HPM_P1;HPM_P2
2021/05/01 00:00:06;;;;;;;236.13;147.50;;;7.80;99.90;;;;;;5065356;28;20666;-85
2021/05/01 00:02:32;;;;;;;342.27;162.13;;;7.80;99.90;;;;;;5060467;28;20226;-85
2021/05/01 00:04:58;;;;;;;319.08;130.93;;;7.70;99.90;;;;;;5064421;28;20203;-84
2021/05/01 00:07:24;;;;;;;190.95;170.45;;;7.70;99.90;;;;;;5073152;28;20203;-83
2021/05/01 00:09:50;;;;;;;175.98;157.93;;;7.70;99.90;;;;;;5076758;28;20210;-84
2021/05/01 00:12:16;;;;;;;92.35;86.50;;;7.90;99.90;;;;;;5076709;28;20203;-82
2021/05/01 00:14:43;;;;;;;139.20;127.45;;;7.50;99.90;;;;;;5077320;28;20669;-82
2021/05/01 00:17:09;;;;;;;167.50;152.48;;;7.50;99.90;;;;;;5076243;28;20227;-83
2021/05/01 00:19:35;;;;;;;164.25;147.75;;;7.40;99.90;;;;;;5077013;28;20203;-84
2021/05/01 00:22:02;;;;;;;168.93;150.05;;;;;;;;;;5075891;28;20228;-83
2021/05/01 00:24:28;;;;;;;12.88;11.20;;;7.40;99.90;;;;;;5076493;28;20215;-84
2021/05/01 00:26:54;;;;;;;36.90;33.28;;;7.50;99.90;;;;;;5067996;28;20245;-85
2021/05/01 00:29:20;;;;;;;14.15;12.60;;;7.50;99.90;;;;;;5062021;28;20211;-85
2021/05/01 00:31:50;;;;;;;168.90;150.55;;;7.60;99.90;;;;;;5060247;28;20203;-85
2021/05/01 00:34:16;;;;;;;59.13;55.22;;;7.60;99.90;;;;;;5058522;28;20231;-85
2021/05/01 00:36:42;;;;;;;381.08;135.00;;;7.60;99.90;;;;;;5059373;28;20213;-84
2021/05/01 00:39:09;;;;;;;373.85;125.13;;;7.60;99.90;;;;;;5059175;28;20242;-85
2021/05/01 00:41:35;;;;;;;346.48;120.47;;;7.50;99.90;;;;;;5058678;28;20207;-86
2021/05/01 00:44:03;;;;;;;364.38;136.05;;;7.40;99.90;;;;;;5060011;28;20262;-84
2021/05/01 00:46:30;;;;;;;183.80;136.93;;;7.40;99.90;;;;;;5066946;28;20203;-85
2021/05/01 00:48:57;;;;;;;376.27;111.70;;;7.30;99.90;;;;;;5073878;28;20211;-83
2021/05/01 00:51:23;;;;;;;139.50;117.45;;;7.30;99.90;;;;;;5073389;28;20211;-85
2021/05/01 00:53:49;;;;;;;248.90;127.95;;;7.30;99.90;;;;;;5064075;28;20253;-85
2021/05/01 00:56:16;;;;;;;205.93;136.05;;;7.30;99.90;;;;;;5068661;28;20203;-84
2021/05/01 00:58:42;;;;;;;347.98;146.98;;;7.50;99.90;;;;;;5078477;28;20222;-84
2021/05/01 01:01:17;;;;;;;367.02;146.60;;;7.40;99.90;;;;;;5069440;28;20221;-83
2021/05/01 01:03:45;;;;;;;77.63;71.72;;;7.30;99.90;;;;;;5064906;28;20206;-83
2021/05/01 01:06:13;;;;;;;257.15;150.73;;;7.30;99.90;;;;;;5079341;28;20203;-84
2021/05/01 01:08:39;;;;;;;410.92;142.23;;;7.20;99.90;;;;;;5063785;28;20202;-85
2021/05/01 01:11:05;;;;;;;370.60;137.07;;;7.30;99.90;;;;;;5064554;28;20210;-85
2021/05/01 01:13:32;;;;;;;283.65;139.40;;;7.30;99.90;;;;;;5063598;28;20242;-85
2021/05/01 01:15:58;;;;;;;371.55;154.57;;;7.50;99.90;;;;;;5063471;28;20294;-85
2021/05/01 01:18:25;;;;;;;386.13;136.05;;;7.30;99.90;;;;;;5064729;28;20227;-84
2021/05/01 01:20:51;;;;;;;289.23;153.82;;;7.20;99.90;;;;;;5063127;28;20206;-84
2021/05/01 01:23:18;;;;;;;132.27;113.13;;;7.30;99.90;;;;;;5065440;28;20219;-85
2021/05/01 01:25:45;;;;;;;201.48;134.65;;;7.30;99.90;;;;;;5064122;28;20203;-85
2021/05/01 01:28:11;;;;;;;260.70;151.95;;;7.40;99.90;;;;;;5062563;28;20203;-85
2021/05/01 01:30:37;;;;;;;271.08;150.80;;;7.50;99.90;;;;;;5061562;28;20210;-83
2021/05/01 01:33:06;;;;;;;179.88;123.78;;;7.40;99.90;;;;;;5063046;28;20218;-83
2021/05/01 01:35:33;;;;;;;179.38;129.15;;;7.10;99.90;;;;;;5079234;28;20210;-82
2021/05/01 01:37:59;;;;;;;24.48;22.08;;;7.10;99.90;;;;;;5079189;28;20219;-83
2021/05/01 01:40:27;;;;;;;91.43;84.53;;;7.00;99.90;;;;;;5078924;28;20198;-83
2021/05/01 01:42:53;;;;;;;213.43;160.07;;;7.40;99.90;;;;;;5078735;28;20261;-82
2021/05/01 01:45:21;;;;;;;66.38;60.40;;;7.20;99.90;;;;;;5078836;28;20242;-83
2021/05/01 01:47:47;;;;;;;165.90;128.88;;;7.10;99.90;;;;;;5079570;28;20183;-83
2021/05/01 01:50:17;;;;;;;110.38;98.80;;;7.30;99.90;;;;;;5078292;28;20203;-84
2021/05/01 01:52:44;;;;;;;167.05;137.32;;;7.20;99.90;;;;;;5076323;28;20227;-84
2021/05/01 01:55:14;;;;;;;22.15;19.85;;;7.20;99.90;;;;;;5078379;28;20504;-84
2021/05/01 01:57:41;;;;;;;116.93;106.63;;;7.30;99.90;;;;;;5079423;28;20211;-83
2021/05/01 02:00:10;;;;;;;106.85;97.50;;;7.20;99.90;;;;;;5078662;28;20218;-85
2021/05/01 02:02:36;;;;;;;194.98;135.10;;;7.20;99.90;;;;;;5078792;28;20230;-84
2021/05/01 02:05:03;;;;;;;134.73;120.30;;;7.20;99.90;;;;;;5078414;28;20203;-83
2021/05/01 02:07:29;;;;;;;272.15;149.65;;;7.20;99.90;;;;;;5078627;28;20187;-84
2021/05/01 02:09:55;;;;;;;268.42;140.02;;;7.20;99.90;;;;;;5076633;28;20191;-83
2021/05/01 02:12:21;;;;;;;167.00;123.47;;;7.40;99.90;;;;;;5078292;28;20250;-83
2021/05/01 02:14:48;;;;;;;124.13;112.53;;;7.40;99.90;;;;;;5078671;28;20229;-83
2021/05/01 02:17:14;;;;;;;141.77;127.57;;;7.40;99.90;;;;;;5078439;28;20207;-83
2021/05/01 02:19:40;;;;;;;88.80;81.35;;;7.50;99.90;;;;;;5078289;28;20198;-83
2021/05/01 02:22:06;;;;;;;94.68;87.88;;;7.40;99.90;;;;;;5078265;28;20226;-82
2021/05/01 02:24:32;;;;;;;133.50;120.80;;;7.30;99.90;;;;;;5067286;28;20222;-85
2021/05/01 02:26:59;;;;;;;85.63;79.35;;;;;;;;;;5059593;28;20273;-85
2021/05/01 02:29:25;;;;;;;114.90;104.68;;;7.40;99.90;;;;;;5059900;28;20203;-84
2021/05/01 02:31:52;;;;;;;34.20;31.02;;;7.60;99.90;;;;;;5059970;28;20202;-84
2021/05/01 02:34:18;;;;;;;131.75;118.32;;;7.30;99.90;;;;;;5059786;28;20618;-85
2021/05/01 02:36:44;;;;;;;127.68;115.90;;;7.50;99.90;;;;;;5059772;28;20600;-85
2021/05/01 02:39:10;;;;;;;126.93;115.15;;;7.50;99.90;;;;;;5061441;28;20256;-84
2021/05/01 02:41:36;;;;;;;21.63;19.50;;;7.60;99.90;;;;;;5061112;28;20199;-85
2021/05/01 02:44:03;;;;;;;144.82;131.07;;;7.50;99.90;;;;;;5059950;28;20246;-84
2021/05/01 02:46:29;;;;;;;78.57;72.00;;;7.50;99.90;;;;;;5060352;28;20203;-84
2021/05/01 02:48:56;;;;;;;127.45;116.55;;;7.50;99.90;;;;;;5061329;28;20252;-85
2021/05/01 02:51:22;;;;;;;52.22;47.65;;;7.60;99.90;;;;;;5060154;28;20203;-85
2021/05/01 02:53:49;;;;;;;18.55;15.85;;;7.50;99.90;;;;;;5059964;28;20273;-85
2021/05/01 02:56:15;;;;;;;100.93;93.18;;;;;;;;;;5059228;28;20203;-84
2021/05/01 02:58:41;;;;;;;172.20;153.65;;;7.60;99.90;;;;;;5059831;28;20226;-84
2021/05/01 03:01:07;;;;;;;183.75;165.00;;;7.50;99.90;;;;;;5059591;28;20214;-85
2021/05/01 03:03:34;;;;;;;194.63;162.95;;;7.60;99.90;;;;;;5059474;28;20219;-85
2021/05/01 03:06:00;;;;;;;108.35;98.72;;;7.50;99.90;;;;;;5059986;28;20202;-85
2021/05/01 03:08:27;;;;;;;135.52;124.70;;;7.50;99.90;;;;;;5072582;28;20206;-82
2021/05/01 03:10:53;;;;;;;52.85;49.75;;;7.40;99.90;;;;;;5076103;28;20203;-82
2021/05/01 03:13:19;;;;;;;171.15;150.77;;;7.50;99.90;;;;;;5075073;28;20203;-84
2021/05/01 03:15:45;;;;;;;80.88;75.95;;;7.30;99.90;;;;;;5066099;28;20203;-84
2021/05/01 03:18:11;;;;;;;156.40;140.00;;;7.50;99.90;;;;;;5059219;28;20219;-84
2021/05/01 03:20:37;;;;;;;145.07;130.75;;;;;;;;;;5060813;28;20249;-84
2021/05/01 03:23:07;;;;;;;141.45;127.00;;;7.50;99.90;;;;;;5061770;28;20223;-84
2021/05/01 03:25:33;;;;;;;35.38;32.60;;;7.50;99.90;;;;;;5060767;28;20364;-85
2021/05/01 03:27:59;;;;;;;19.85;17.73;;;7.40;99.90;;;;;;5060229;28;20199;-85
2021/05/01 03:30:25;;;;;;;148.90;135.27;;;7.30;99.90;;;;;;5061235;28;20207;-84
2021/05/01 03:32:51;;;;;;;22.58;16.13;;;7.40;99.90;;;;;;5065771;28;20442;-85
2021/05/01 03:35:17;;;;;;;41.63;38.00;;;7.40;99.90;;;;;;5077189;28;20207;-82
2021/05/01 03:37:44;;;;;;;161.88;147.88;;;7.30;99.90;;;;;;5067692;28;20215;-85
2021/05/01 03:40:12;;;;;;;263.13;248.55;;;7.30;99.90;;;;;;5058377;28;20469;-85
2021/05/01 03:42:39;;;;;;;20.40;15.10;;;7.00;99.90;;;;;;5057758;28;20853;-84
2021/05/01 03:45:07;;;;;;;144.30;135.68;;;7.00;99.90;;;;;;5058769;28;20544;-85
2021/05/01 03:47:33;;;;;;;71.63;67.35;;;7.50;99.90;;;;;;5059264;28;20633;-84
2021/05/01 03:50:00;;;;;;;59.88;55.60;;;;;;;;;;5058289;28;20199;-84
2021/05/01 03:52:26;;;;;;;54.45;50.95;;;7.30;99.90;;;;;;5058737;28;20199;-84
2021/05/01 03:54:52;;;;;;;21.15;14.20;;;7.20;99.90;;;;;;5059456;28;20203;-84
2021/05/01 03:57:19;;;;;;;26.60;24.13;;;7.20;99.90;;;;;;5064669;28;20213;-83
2021/05/01 03:59:45;;;;;;;135.40;123.38;;;7.20;99.90;;;;;;5073048;28;20203;-84
2021/05/01 04:02:11;;;;;;;149.85;140.30;;;7.10;99.90;;;;;;5058141;28;20440;-84
2021/05/01 04:04:38;;;;;;;18.30;16.10;;;;;;;;;;5059162;28;20621;-87
2021/05/01 04:07:04;;;;;;;19.73;14.60;;;7.60;99.90;;;;;;5059487;28;20798;-85
2021/05/01 04:09:30;;;;;;;22.65;15.35;;;7.10;99.90;;;;;;5059335;28;20228;-84
2021/05/01 04:11:56;;;;;;;142.57;130.88;;;7.30;99.90;;;;;;5059975;28;20203;-84
2021/05/01 04:14:24;;;;;;;161.35;147.63;;;7.20;99.90;;;;;;5068715;28;20242;-84
2021/05/01 04:16:50;;;;;;;236.55;142.02;;;7.20;99.90;;;;;;5073045;28;20211;-84
2021/05/01 04:19:16;;;;;;;24.23;14.82;;;7.90;99.90;;;;;;5061914;28;20203;-84
2021/05/01 04:21:42;;;;;;;155.23;140.77;;;7.50;99.90;;;;;;5062782;28;20207;-84
2021/05/01 04:24:09;;;;;;;23.67;21.33;;;7.50;99.90;;;;;;5073579;28;20207;-84
2021/05/01 04:26:35;;;;;;;108.93;99.43;;;7.50;99.90;;;;;;5077321;28;20214;-84
2021/05/01 04:29:01;;;;;;;123.53;114.43;;;7.50;99.90;;;;;;5078152;28;20187;-83
2021/05/01 04:31:28;;;;;;;203.30;158.68;;;7.60;99.90;;;;;;5076493;28;20194;-84
2021/05/01 04:33:54;;;;;;;122.60;110.35;;;7.60;99.90;;;;;;5073466;28;20219;-83
2021/05/01 04:36:21;;;;;;;138.57;127.40;;;7.50;99.90;;;;;;5074843;28;20207;-84
2021/05/01 04:38:47;;;;;;;84.70;78.68;;;;;;;;;;5059753;28;20226;-85
2021/05/01 04:41:13;;;;;;;202.48;161.85;;;7.50;99.90;;;;;;5059376;28;20623;-84
2021/05/01 04:43:40;;;;;;;285.20;151.05;;;7.40;99.90;;;;;;5081700;22;20226;-80
2021/05/01 04:46:07;;;;;;;52.97;49.17;;;7.40;99.90;;;;;;5057500;28;20270;-79
2021/05/01 04:48:33;;;;;;;166.80;149.18;;;7.50;99.90;;;;;;5056203;28;20206;-79
2021/05/01 04:51:00;;;;;;;264.98;237.07;;;7.80;99.90;;;;;;5056965;28;20440;-80
2021/05/01 04:53:26;;;;;;;306.52;202.13;;;7.70;99.90;;;;;;5056063;28;20223;-79
2021/05/01 04:55:52;;;;;;;322.02;180.10;;;;;;;;;;5055342;28;20207;-79
2021/05/01 04:58:18;;;;;;;117.20;108.70;;;10.50;99.90;;;;;;5057888;28;20214;-80
2021/05/01 05:00:45;;;;;;;34.05;31.23;;;7.20;99.90;;;;;;5057802;28;20203;-79
2021/05/01 05:03:11;;;;;;;95.75;88.53;;;7.50;99.90;;;;;;5061214;28;20277;-81
2021/05/01 05:05:38;;;;;;;47.08;43.70;;;7.50;99.90;;;;;;5057737;28;20199;-80
2021/05/01 05:08:04;;;;;;;302.38;155.45;;;7.70;99.90;;;;;;5056877;28;20199;-80
2021/05/01 05:10:33;;;;;;;145.38;132.13;;;7.60;99.90;;;;;;5056981;28;20202;-80
2021/05/01 05:13:00;;;;;;;152.57;138.63;;;;;;;;;;5058414;28;20249;-80
2021/05/01 05:15:26;;;;;;;157.70;140.77;;;;;;;;;;5056532;28;20206;-79
2021/05/01 05:17:53;;;;;;;374.17;146.07;;;7.60;99.90;;;;;;5056045;28;20284;-79
2021/05/01 05:20:19;;;;;;;299.70;149.32;;;7.70;99.90;;;;;;5055322;28;20207;-79
2021/05/01 05:22:47;;;;;;;184.35;149.43;;;7.50;99.90;;;;;;5055936;28;20253;-80
2021/05/01 05:25:13;;;;;;;420.40;161.77;;;7.50;99.90;;;;;;5055309;28;20245;-79
2021/05/01 05:27:39;;;;;;;249.68;130.77;;;7.60;99.90;;;;;;5055644;28;20627;-79
2021/05/01 05:30:06;;;;;;;328.50;147.45;;;7.60;99.90;;;;;;5057483;28;20257;-80
2021/05/01 05:32:32;;;;;;;67.80;63.22;;;7.60;99.90;;;;;;5057459;28;20556;-80
2021/05/01 05:34:58;;;;;;;105.53;98.28;;;7.60;99.90;;;;;;5054937;28;20262;-80
2021/05/01 05:37:25;;;;;;;364.23;138.05;;;7.50;99.90;;;;;;5055294;28;20226;-78
2021/05/01 05:39:53;;;;;;;164.73;135.50;;;7.60;99.90;;;;;;5058014;28;20210;-80
2021/05/01 05:42:20;;;;;;;167.57;150.63;;;7.30;99.90;;;;;;5058982;28;20573;-81
2021/05/01 05:44:49;;;;;;;248.80;132.57;;;7.50;99.90;;;;;;5059323;28;20239;-79
2021/05/01 05:47:15;;;;;;;318.42;288.88;;;7.70;99.90;;;;;;5057450;28;20798;-79
2021/05/01 05:49:41;;;;;;;147.88;137.77;;;7.70;99.90;;;;;;5058668;28;20218;-79
2021/05/01 05:52:07;;;;;;;313.00;170.68;;;7.40;99.90;;;;;;5059094;28;20199;-79
2021/05/01 05:54:34;;;;;;;258.35;156.13;;;7.80;99.90;;;;;;5059852;28;20219;-79
2021/05/01 05:57:01;;;;;;;314.40;146.18;;;7.70;99.90;;;;;;5058136;28;20256;-79
2021/05/01 05:59:27;;;;;;;172.02;145.95;;;7.60;99.90;;;;;;5059258;28;20276;-79
2021/05/01 06:01:55;;;;;;;362.45;139.55;;;7.60;99.90;;;;;;5058643;28;20210;-78
2021/05/01 06:04:29;;;;;;;400.58;135.38;;;7.60;99.90;;;;;;5060645;28;20231;-79
2021/05/01 06:07:11;;;;;;;324.52;141.20;;;7.70;99.90;;;;;;5058977;28;20191;-79
2021/05/01 06:09:39;;;;;;;235.43;214.57;;;7.80;99.90;;;;;;5058137;28;20450;-79
2021/05/01 06:12:09;;;;;;;401.48;195.43;;;7.70;99.90;;;;;;5061606;28;20260;-80
2021/05/01 06:14:36;;;;;;;232.32;159.85;;;7.90;99.90;;;;;;5061655;28;20229;-80
2021/05/01 06:17:04;;;;;;;340.40;140.02;;;7.80;99.90;;;;;;5062883;28;20297;-80
2021/05/01 06:19:31;;;;;;;394.45;147.48;;;7.70;99.90;;;;;;5061910;28;20210;-80
2021/05/01 06:21:58;;;;;;;138.63;127.18;;;7.70;99.90;;;;;;5060407;28;20261;-80
2021/05/01 06:24:25;;;;;;;156.82;141.70;;;;;;;;;;5060096;28;20234;-81
2021/05/01 06:26:52;;;;;;;209.20;156.07;;;7.90;99.90;;;;;;5062641;28;20198;-80
2021/05/01 06:29:19;;;;;;;252.70;161.77;;;8.00;99.90;;;;;;5064866;28;20203;-80
2021/05/01 06:31:45;;;;;;;303.58;153.90;;;7.80;99.90;;;;;;5059203;28;20218;-80
2021/05/01 06:34:12;;;;;;;413.90;152.88;;;8.00;99.90;;;;;;5060633;28;20226;-80
2021/05/01 06:36:38;;;;;;;327.17;150.70;;;7.80;99.90;;;;;;5060865;28;20574;-79
2021/05/01 06:39:05;;;;;;;304.83;181.20;;;;;;;;;;5060903;28;20451;-81
2021/05/01 06:41:40;;;;;;;415.00;185.05;;;8.00;99.90;;;;;;5058964;28;20448;-80
2021/05/01 06:44:11;;;;;;;443.75;238.40;;;8.10;99.90;;;;;;5060001;28;20528;-80
2021/05/01 06:46:40;;;;;;;263.15;182.30;;;8.20;99.90;;;;;;5059440;28;20194;-79
2021/05/01 06:49:11;;;;;;;338.02;168.60;;;8.20;99.90;;;;;;5060589;28;20206;-80
2021/05/01 06:51:39;;;;;;;434.58;217.57;;;8.20;99.90;;;;;;5066956;28;20436;-81
2021/05/01 06:54:08;;;;;;;422.85;180.57;;;8.30;99.90;;;;;;5061660;28;20241;-80
2021/05/01 06:56:36;;;;;;;383.80;131.48;;;8.30;99.90;;;;;;5060228;28;20199;-80
2021/05/01 06:59:04;;;;;;;396.95;195.48;;;8.40;99.90;;;;;;5061965;28;20459;-80
2021/05/01 07:01:31;;;;;;;411.08;178.38;;;8.30;99.90;;;;;;5062330;28;20213;-81
2021/05/01 07:04:00;;;;;;;412.85;164.10;;;8.40;99.90;;;;;;5061985;28;20234;-80
2021/05/01 07:06:26;;;;;;;276.13;185.48;;;8.50;99.90;;;;;;5061304;28;20218;-80
2021/05/01 07:08:53;;;;;;;249.82;172.05;;;8.50;99.90;;;;;;5061751;28;20203;-80
2021/05/01 07:11:19;;;;;;;232.48;180.00;;;8.40;99.90;;;;;;5060587;28;20203;-80
2021/05/01 07:13:48;;;;;;;312.98;196.95;;;8.50;99.90;;;;;;5068596;28;20223;-80
2021/05/01 07:16:15;;;;;;;108.47;100.70;;;7.80;99.90;;;;;;5072210;28;20210;-80
2021/05/01 07:18:42;;;;;;;148.80;134.73;;;8.60;99.90;;;;;;5070522;28;20473;-80
2021/05/01 07:21:11;;;;;;;55.03;50.63;;;8.70;99.90;;;;;;5068435;28;20424;-80
2021/05/01 07:23:38;;;;;;;70.03;64.87;;;;;;;;;;5071715;28;20469;-80
2021/05/01 07:26:05;;;;;;;165.63;150.13;;;8.50;99.90;;;;;;5066832;28;20438;-79
2021/05/01 07:28:36;;;;;;;35.00;31.47;;;8.50;99.90;;;;;;5065415;28;20639;-80
2021/05/01 07:31:06;;;;;;;107.73;100.03;;;8.70;99.90;;;;;;5068638;28;20453;-79
2021/05/01 07:33:42;;;;;;;148.52;134.63;;;8.40;99.90;;;;;;5069885;28;20564;-79
2021/05/01 07:36:11;;;;;;;167.50;152.45;;;8.30;99.90;;;;;;5069118;28;20187;-79
2021/05/01 07:38:37;;;;;;;220.80;197.25;;;8.30;99.90;;;;;;5063850;28;20219;-80
2021/05/01 07:41:04;;;;;;;77.70;71.65;;;8.50;99.90;;;;;;5062161;28;20202;-79
2021/05/01 07:43:31;;;;;;;62.23;57.27;;;8.40;99.90;;;;;;5060896;28;20241;-81
2021/05/01 07:46:05;;;;;;;292.13;203.40;;;8.40;99.90;;;;;;5062245;28;20424;-80
2021/05/01 07:48:33;;;;;;;96.27;88.73;;;8.60;99.90;;;;;;5063312;28;20242;-80
2021/05/01 07:50:59;;;;;;;42.37;38.97;;;8.50;99.90;;;;;;5061337;28;20477;-80
2021/05/01 07:53:27;;;;;;;43.83;40.00;;;8.70;99.90;;;;;;5062922;28;20453;-80
2021/05/01 07:55:53;;;;;;;210.90;192.60;;;8.60;99.90;;;;;;5065173;28;20428;-79
2021/05/01 07:58:20;;;;;;;127.80;118.77;;;8.60;99.90;;;;;;5067415;28;20215;-79
2021/05/01 08:00:46;;;;;;;160.77;145.63;;;8.50;99.90;;;;;;5067997;28;20556;-79
2021/05/01 08:03:13;;;;;;;48.33;44.43;;;8.90;99.90;;;;;;5068233;28;20227;-80
2021/05/01 08:05:39;;;;;;;405.80;382.95;;;8.70;99.90;;;;;;5067338;28;20431;-81
2021/05/01 08:08:05;;;;;;;117.37;110.20;;;9.10;99.90;;;;;;5066337;28;20203;-79
2021/05/01 08:10:32;;;;;;;88.57;82.43;;;9.00;99.90;;;;;;5062040;28;20414;-80
2021/05/01 08:12:58;;;;;;;258.63;234.83;;;9.00;99.90;;;;;;5059881;28;20202;-79
2021/05/01 08:15:25;;;;;;;36.22;33.03;;;9.10;99.90;;;;;;5059878;28;20439;-80
2021/05/01 08:17:52;;;;;;;64.67;60.27;;;;;;;;;;5059535;28;20713;-80
2021/05/01 08:20:18;;;;;;;275.92;246.57;;;9.30;99.90;;;;;;5059816;28;20457;-79
2021/05/01 08:22:44;;;;;;;203.63;188.83;;;9.70;99.90;;;;;;5059344;28;20199;-80
2021/05/01 08:25:12;;;;;;;263.10;225.73;;;9.60;99.90;;;;;;5057399;28;20446;-80
2021/05/01 08:27:39;;;;;;;187.50;173.43;;;9.80;99.90;;;;;;5058583;28;20449;-81
2021/05/01 08:30:08;;;;;;;421.52;196.25;;;9.90;99.90;;;;;;5059087;28;20441;-81
2021/05/01 08:32:34;;;;;;;424.38;215.02;;;10.20;99.90;;;;;;5059639;28;20214;-79
2021/05/01 08:35:01;;;;;;;444.23;221.38;;;10.20;99.90;;;;;;5059563;28;20223;-80
2021/05/01 08:37:27;;;;;;;522.60;472.45;;;9.80;99.90;;;;;;5058866;28;20447;-81
2021/05/01 08:39:53;;;;;;;517.25;491.35;;;10.10;99.90;;;;;;5059938;28;20858;-80
2021/05/01 08:42:19;;;;;;;247.67;234.33;;;10.60;99.90;;;;;;5062063;28;20450;-80
2021/05/01 08:44:47;;;;;;;422.70;237.10;;;10.80;99.90;;;;;;5064232;28;20481;-79
2021/05/01 08:47:13;;;;;;;471.17;436.42;;;10.80;99.90;;;;;;5063400;28;20818;-80
2021/05/01 08:49:39;;;;;;;169.85;162.45;;;10.80;99.90;;;;;;5061141;28;20443;-80
2021/05/01 08:52:05;;;;;;;374.80;320.98;;;10.30;99.90;;;;;;5058468;28;20260;-79
2021/05/01 08:54:31;;;;;;;362.60;290.60;;;10.20;99.90;;;;;;5058122;28;20272;-79
2021/05/01 08:56:58;;;;;;;192.60;180.80;;;10.30;99.90;;;;;;5061012;28;20206;-79
2021/05/01 08:59:24;;;;;;;255.30;230.43;;;10.20;99.90;;;;;;5060147;28;20497;-80
2021/05/01 09:01:52;;;;;;;393.77;167.32;;;10.20;99.90;;;;;;5059581;28;20457;-79
2021/05/01 09:04:19;;;;;;;360.30;172.55;;;10.80;99.90;;;;;;5058769;28;20227;-79
2021/05/01 09:06:46;;;;;;;255.73;231.87;;;10.70;99.90;;;;;;5060165;28;20199;-80
2021/05/01 09:09:13;;;;;;;245.80;228.17;;;;;;;;;;5058410;28;20445;-79
2021/05/01 09:11:41;;;;;;;440.20;248.25;;;11.30;99.90;;;;;;5058838;28;20449;-80
2021/05/01 09:14:18;;;;;;;293.10;261.97;;;11.20;99.90;;;;;;5062198;28;20230;-79
2021/05/01 09:16:56;;;;;;;365.38;196.73;;;11.10;99.90;;;;;;5062397;28;20469;-79
2021/05/01 09:19:31;;;;;;;237.40;218.03;;;11.00;99.90;;;;;;5062032;28;20211;-79
2021/05/01 09:22:02;;;;;;;207.87;194.20;;;11.00;99.90;;;;;;5065931;28;20404;-80
2021/05/01 09:24:28;;;;;;;315.17;284.70;;;;;;;;;;5062792;28;20468;-80
2021/05/01 09:26:55;;;;;;;151.70;143.10;;;11.30;99.90;;;;;;5064113;28;20453;-81
2021/05/01 09:29:31;;;;;;;74.43;70.33;;;11.80;99.90;;;;;;5062380;28;20453;-80
2021/05/01 09:32:00;;;;;;;277.07;256.97;;;12.30;99.90;;;;;;5062536;28;20547;-80
2021/05/01 09:34:43;;;;;;;348.43;310.63;;;12.20;99.90;;;;;;5061249;28;20473;-80
2021/05/01 09:37:10;;;;;;;202.00;190.93;;;11.60;99.90;;;;;;5063045;28;20437;-80
2021/05/01 09:39:46;;;;;;;389.80;300.50;;;12.60;99.90;;;;;;5062452;28;20462;-80
2021/05/01 09:42:15;;;;;;;380.75;235.13;;;12.90;99.90;;;;;;5061957;28;20440;-80
2021/05/01 09:44:41;;;;;;;401.77;278.03;;;12.60;99.90;;;;;;5063461;28;20748;-81
2021/05/01 09:47:13;;;;;;;370.52;157.38;;;12.40;99.90;;;;;;5063142;28;20831;-80
2021/05/01 09:49:40;;;;;;;327.13;296.93;;;12.70;99.90;;;;;;5062368;28;20653;-79
2021/05/01 09:52:09;;;;;;;382.17;180.65;;;12.60;99.90;;;;;;5060998;28;20537;-79
2021/05/01 09:54:37;;;;;;;335.53;307.83;;;12.60;99.90;;;;;;5062111;28;20234;-79
2021/05/01 09:57:05;;;;;;;375.88;161.65;;;13.00;99.90;;;;;;5061745;28;20436;-79
2021/05/01 09:59:35;;;;;;;374.08;175.63;;;13.20;99.90;;;;;;5065479;28;20226;-79
2021/05/01 10:02:01;;;;;;;375.65;162.07;;;13.40;99.90;;;;;;5069518;28;20263;-80
2021/05/01 10:04:29;;;;;;;429.05;262.00;;;12.80;99.90;;;;;;5069026;28;20230;-79
2021/05/01 10:06:58;;;;;;;375.95;175.60;;;12.30;99.90;;;;;;5069225;28;20203;-79
2021/05/01 10:09:26;;;;;;;342.60;320.03;;;12.80;99.90;;;;;;5069601;28;20257;-78
2021/05/01 10:12:01;;;;;;;290.37;273.67;;;12.30;99.90;;;;;;5067151;28;20518;-79
2021/05/01 10:14:39;;;;;;;417.63;286.73;;;12.20;99.90;;;;;;5066835;28;20458;-79
2021/05/01 10:17:06;;;;;;;368.47;295.70;;;12.30;99.90;;;;;;5066755;28;20487;-79
2021/05/01 10:19:47;;;;;;;342.17;306.17;;;12.40;99.90;;;;;;5061237;28;21019;-80
2021/05/01 10:22:23;;;;;;;333.50;310.13;;;12.30;99.90;;;;;;5062592;28;20441;-79
2021/05/01 10:24:49;;;;;;;334.10;303.63;;;12.30;99.90;;;;;;5064556;28;20448;-79
2021/05/01 10:27:18;;;;;;;341.77;319.00;;;12.60;99.90;;;;;;5062727;28;20445;-79
2021/05/01 10:29:45;;;;;;;338.83;309.90;;;12.40;99.90;;;;;;5063883;28;20445;-80
2021/05/01 10:32:15;;;;;;;343.40;309.40;;;12.10;99.90;;;;;;5070706;28;20420;-79
2021/05/01 10:34:43;;;;;;;383.73;291.03;;;12.20;99.90;;;;;;5066105;28;20470;-79
2021/05/01 10:37:15;;;;;;;330.17;301.87;;;12.10;99.90;;;;;;5062161;28;20453;-80
2021/05/01 10:39:45;;;;;;;329.20;302.17;;;12.00;99.90;;;;;;5061416;28;20448;-80
2021/05/01 10:42:14;;;;;;;331.53;298.27;;;12.10;99.90;;;;;;5062039;28;20427;-80
2021/05/01 10:44:40;;;;;;;326.67;292.47;;;;;;;;;;5086729;22;20461;-85
2021/05/01 10:47:09;;;;;;;415.20;244.63;;;11.90;99.90;;;;;;5076693;28;20442;-85
2021/05/01 10:49:35;;;;;;;335.77;313.13;;;;;;;;;;5074015;28;20445;-85
2021/05/01 10:52:14;;;;;;;341.00;310.17;;;11.50;99.90;;;;;;5075026;28;20411;-83
2021/05/01 10:54:56;;;;;;;332.17;296.23;;;11.60;99.90;;;;;;5071864;28;20470;-85
2021/05/01 10:57:23;;;;;;;343.50;315.80;;;12.00;99.90;;;;;;5078069;28;20441;-83
2021/05/01 10:59:57;;;;;;;369.03;305.73;;;12.10;99.90;;;;;;5072726;28;20445;-84
2021/05/01 11:02:33;;;;;;;349.73;319.07;;;12.50;99.90;;;;;;5068436;28;20449;-85
2021/05/01 11:05:00;;;;;;;415.10;244.43;;;13.40;99.90;;;;;;5066354;28;20530;-85
2021/05/01 11:07:43;;;;;;;378.50;210.43;;;13.80;99.90;;;;;;5065658;28;20445;-84
2021/05/01 11:10:14;;;;;;;388.95;187.20;;;13.90;99.90;;;;;;5066770;28;20191;-85
2021/05/01 11:12:49;;;;;;;336.60;302.60;;;13.80;99.90;;;;;;5066893;28;20191;-84
2021/05/01 11:15:20;;;;;;;319.63;301.10;;;13.00;99.90;;;;;;5067821;28;20452;-84
2021/05/01 11:17:51;;;;;;;351.10;329.10;;;12.80;99.90;;;;;;5065620;28;20469;-83
2021/05/01 11:20:19;;;;;;;330.87;311.17;;;12.70;99.90;;;;;;5064554;28;20433;-85
2021/05/01 11:22:50;;;;;;;380.15;178.05;;;12.70;99.90;;;;;;5066024;28;20933;-84
2021/05/01 11:25:18;;;;;;;316.33;283.17;;;12.30;99.90;;;;;;5066285;28;20231;-82
2021/05/01 11:27:46;;;;;;;262.87;248.20;;;12.10;99.90;;;;;;5068915;28;20445;-84
2021/05/01 11:30:14;;;;;;;419.67;300.67;;;12.00;99.90;;;;;;5067907;28;20446;-85
2021/05/01 11:32:41;;;;;;;321.87;296.93;;;12.40;99.90;;;;;;5069863;28;20202;-84
2021/05/01 11:35:09;;;;;;;367.33;289.77;;;12.50;99.90;;;;;;5067775;28;20966;-83
2021/05/01 11:37:41;;;;;;;287.43;271.73;;;12.80;99.90;;;;;;5068677;28;20471;-83
2021/05/01 11:40:11;;;;;;;324.20;303.63;;;12.50;99.90;;;;;;5068487;28;20404;-85
2021/05/01 11:42:38;;;;;;;211.30;201.20;;;12.70;99.90;;;;;;5068555;28;20449;-83
2021/05/01 11:45:07;;;;;;;324.73;302.30;;;13.00;99.90;;;;;;5070284;28;20469;-84
2021/05/01 11:47:35;;;;;;;364.13;308.93;;;13.00;99.90;;;;;;5066326;28;20461;-84
2021/05/01 11:50:01;;;;;;;383.70;218.02;;;12.70;99.90;;;;;;5069571;28;20444;-83
2021/05/01 11:52:58;;;;;;;386.40;186.77;;;12.40;99.90;;;;;;5077170;28;20207;-84
2021/05/01 11:55:31;;;;;;;317.57;296.20;;;12.10;99.90;;;;;;5070109;28;20191;-84
2021/05/01 11:58:00;;;;;;;324.70;293.40;;;12.50;99.90;;;;;;5069155;28;20518;-83
2021/05/01 12:00:34;;;;;;;407.97;328.00;;;12.40;99.90;;;;;;5073798;28;20457;-85
2021/05/01 12:03:02;;;;;;;397.93;345.40;;;12.60;99.90;;;;;;5073650;28;20426;-84
2021/05/01 12:05:32;;;;;;;298.33;281.63;;;12.60;99.90;;;;;;5072804;28;20508;-84
2021/05/01 12:08:06;;;;;;;273.60;259.40;;;12.70;99.90;;;;;;5072297;28;20458;-84
2021/05/01 12:10:36;;;;;;;363.83;338.07;;;12.40;99.90;;;;;;5073690;28;20448;-84
2021/05/01 12:13:09;;;;;;;327.07;305.63;;;12.30;99.90;;;;;;5074234;28;20388;-85
2021/05/01 12:15:37;;;;;;;360.53;334.20;;;12.80;99.90;;;;;;5069682;28;20511;-85
2021/05/01 12:18:05;;;;;;;360.83;337.73;;;12.80;99.90;;;;;;5073687;28;20452;-83
2021/05/01 12:20:34;;;;;;;381.23;352.57;;;12.80;99.90;;;;;;5073763;28;20449;-85
2021/05/01 12:23:06;;;;;;;369.17;335.00;;;12.80;99.90;;;;;;5074185;28;20940;-85
2021/05/01 12:25:35;;;;;;;380.53;351.20;;;13.00;99.90;;;;;;5073654;28;20442;-85